Village of Lakewood, Illinois
Current Conditions -  °F | °C
As of 9:52 AM on Friday 19 Dec 2014 (Local Time) from KDPA Reporting Station
Overcast Overcast  
Wind Chill: 29°   Ceiling: 2400
Heat Index: 29°   Visibility: 8mi
Dew Point: 22°   Wind: 3mph
Humidity: 75%   Direction: 10°N
Pressure: 30.31"   Gusts: NA
Location:  42.2284°N, 88.3202°W
Report Text: KDPA 191552Z 01003KT 8SM OVC024 M02/M06 A3031 RMK AO2 SLP275 T10171056
Loading
Personal Weather Stations






























Interactive Weather Map New forecast layout! Learn more

10-Day Weather Forecast

Advertisements
Track Severe Weather on mobile